Gracie M. Reinauer — WDI7449 — position and weather

sailwx.info

Track history (hours):
 
Tides and Currents Weather Stations Pressure Air Temp Water Temp Dewpoint Dewpoint Depression Visibility Wind Speed Wind Dir Waves Ship Positions

Gracie M. Reinauer

Owner: REINAUER TRANSPORTATION CO.,LLC., STATEN ISLAND,, NY. More information available from US FCC via Universal Licensing System and Coast Guard Vessel Documentation Center.

Last reported at 2017-Dec-15 05:31 UTC. Time now 2017-Dec-15 08:28 UTC.
Position N 40°30' W 074°10'.

Length 145 m; draft 4.9 m.

Type: . MMSI: 367728850.

Date/timePositionNaut miles runAvg speedWind from/ knotsBaromVisibWave heightAir tempDewpointWater temp
2017-Dec-15 05:31N 40°30' W 074°10'1 9.5
2017-Dec-15 05:26N 40°30' W 074°09'4 9.2
2017-Dec-15 04:57N 40°29' W 074°04'4 8.9
2017-Dec-15 04:30N 40°33' W 074°02'611.2
2017-Dec-15 04:01N 40°38' W 074°03'1610.7
2017-Dec-15 02:31N 40°53' W 073°56'6 0.1
2017-Dec-13 07:51N 40°59' W 073°54'3 8.9
2017-Dec-13 07:30N 40°56' W 073°55'4 8.4
2017-Dec-13 07:00N 40°52' W 073°57'4 8.0
2017-Dec-13 06:30N 40°48' W 073°59'4 7.5
2017-Dec-13 06:01N 40°45' W 074°01'4 7.2
2017-Dec-13 05:30N 40°41' W 074°02'3 6.2
2017-Dec-13 05:01N 40°39' W 074°05'4 7.1
2017-Dec-13 04:30N 40°39' W 074°10'3 5.7
2017-Dec-13 04:00N 40°37' W 074°12'2 2.8
2017-Dec-13 03:28N 40°35' W 074°13'0 0.0
2017-Dec-13 02:58N 40°35' W 074°13'0 0.0
2017-Dec-13 01:45N 40°35' W 074°13'0 0.0
2017-Dec-13 01:27N 40°35' W 074°13'0 0.0
2017-Dec-13 01:00N 40°35' W 074°13'0 0.0
2017-Dec-12 23:39N 40°35' W 074°13'0 0.0
2017-Dec-12 10:27N 40°35' W 074°13'0 0.0
2017-Dec-12 09:15N 40°35' W 074°13'0 0.0
2017-Dec-12 08:45N 40°35' W 074°13'0 0.0
2017-Dec-12 08:24N 40°35' W 074°13'0 0.0
2017-Dec-12 07:57N 40°35' W 074°13'0 0.0
2017-Dec-12 07:27N 40°35' W 074°13'0 0.0
2017-Dec-12 06:57N 40°35' W 074°13'0 0.0
2017-Dec-12 06:15N 40°35' W 074°13'0 0.0
2017-Dec-12 05:15N 40°35' W 074°13'0 0.0
2017-Dec-12 04:57N 40°35' W 074°13'0 0.0
2017-Dec-12 04:21N 40°35' W 074°13'0 0.0
2017-Dec-12 03:39N 40°35' W 074°13'0 0.0
2017-Dec-12 03:27N 40°35' W 074°13'0 0.0
2017-Dec-12 00:45N 40°35' W 074°13'0 0.0
2017-Dec-11 23:39N 40°35' W 074°13'0 0.0
2017-Dec-11 23:15N 40°35' W 074°13'0 0.2
2017-Dec-11 22:48N 40°35' W 074°13'1 4.4
2017-Dec-11 22:30N 40°36' W 074°12'3 6.3
2017-Dec-11 21:58N 40°39' W 074°09'4 7.9
2017-Dec-11 21:30N 40°39' W 074°04'1 2.5
2017-Dec-11 20:59N 40°39' W 074°03'0 0.0
2017-Dec-11 20:29N 40°40' W 074°03'0 0.0
2017-Dec-11 19:59N 40°40' W 074°03'0 0.0
2017-Dec-11 19:29N 40°40' W 074°03'0 0.0
2017-Dec-11 18:59N 40°40' W 074°03'0 0.0
2017-Dec-11 18:29N 40°40' W 074°03'0 0.2
2017-Dec-11 17:59N 40°39' W 074°03'0 0.2
2017-Dec-11 17:29N 40°39' W 074°03'0 0.0
2017-Dec-11 16:59N 40°39' W 074°03'0 0.0
2017-Dec-11 16:29N 40°39' W 074°03'0 0.0
2017-Dec-11 15:59N 40°39' W 074°03'0 0.0
2017-Dec-11 15:29N 40°39' W 074°03'0 0.0
2017-Dec-11 14:59N 40°39' W 074°03'0 0.0
2017-Dec-11 14:29N 40°39' W 074°03'0 0.0
2017-Dec-11 13:59N 40°39' W 074°03'0 0.0
2017-Dec-11 13:29N 40°39' W 074°03'0 0.0
2017-Dec-11 12:59N 40°39' W 074°03'0 0.0
2017-Dec-11 12:29N 40°39' W 074°03'0 0.0
2017-Dec-11 11:59N 40°39' W 074°03'0 0.0
2017-Dec-11 11:29N 40°39' W 074°03'0 0.1
2017-Dec-11 10:59N 40°39' W 074°03'0 0.1
2017-Dec-11 10:29N 40°39' W 074°03'0 0.0
2017-Dec-11 09:59N 40°39' W 074°03'0 0.0
2017-Dec-11 09:29N 40°40' W 074°03'0 0.0
2017-Dec-11 08:59N 40°40' W 074°03'0 0.0
2017-Dec-11 08:29N 40°40' W 074°03'0 0.0
2017-Dec-11 07:59N 40°40' W 074°03'0 0.0
2017-Dec-11 07:29N 40°40' W 074°03'0 0.0
2017-Dec-11 06:59N 40°40' W 074°03'0 0.0
2017-Dec-11 06:29N 40°40' W 074°03'0 0.0
2017-Dec-11 05:59N 40°40' W 074°03'0 0.1
2017-Dec-11 05:29N 40°40' W 074°03'0 0.3
2017-Dec-11 04:59N 40°39' W 074°03'0 0.0
2017-Dec-11 04:29N 40°39' W 074°03'0 0.0
2017-Dec-11 03:59N 40°39' W 074°03'0 0.0
2017-Dec-11 03:29N 40°39' W 074°03'0 0.0
2017-Dec-11 02:59N 40°39' W 074°03'0 0.0
2017-Dec-11 02:29N 40°39' W 074°03'0 0.0
2017-Dec-11 01:59N 40°39' W 074°03'0 0.0
2017-Dec-11 01:29N 40°39' W 074°03'0 0.0
2017-Dec-11 00:59N 40°39' W 074°03'0 0.0
2017-Dec-11 00:29N 40°39' W 074°03'0 0.0
2017-Dec-10 23:59N 40°39' W 074°03'0 0.1
2017-Dec-10 23:29N 40°39' W 074°03'0 0.2
2017-Dec-10 22:59N 40°39' W 074°03'0 0.0
2017-Dec-10 22:29N 40°39' W 074°03'0 0.1
2017-Dec-10 21:59N 40°39' W 074°03'0 0.0
2017-Dec-10 21:29N 40°39' W 074°03'0 0.0
2017-Dec-10 20:59N 40°39' W 074°03'0 0.0
2017-Dec-10 20:29N 40°39' W 074°03'0 0.1
2017-Dec-10 19:59N 40°40' W 074°03'0 0.0
2017-Dec-10 19:29N 40°39' W 074°03'0 0.0
2017-Dec-10 18:59N 40°40' W 074°03'0 0.0
2017-Dec-10 18:29N 40°40' W 074°03'0 0.1
2017-Dec-10 17:59N 40°39' W 074°03'0 0.0
2017-Dec-10 17:29N 40°39' W 074°03'0 0.0
2017-Dec-10 16:59N 40°39' W 074°03'0 0.1
2017-Dec-10 16:29N 40°39' W 074°03'0 0.0
2017-Dec-10 15:59N 40°39' W 074°03'0 0.1
2017-Dec-10 15:29N 40°39' W 074°03'0 0.1
2017-Dec-10 14:59N 40°39' W 074°03'0 0.0
2017-Dec-10 14:28N 40°39' W 074°03'0 0.1
2017-Dec-10 13:59N 40°39' W 074°03'0 0.0
2017-Dec-10 13:29N 40°39' W 074°03'0 0.0
2017-Dec-10 12:58N 40°39' W 074°03'0 0.0
2017-Dec-10 12:28N 40°39' W 074°03'0 0.0
2017-Dec-10 11:59N 40°39' W 074°03'0 0.0
2017-Dec-10 11:29N 40°39' W 074°03'0 0.1
2017-Dec-10 10:59N 40°39' W 074°03'0 0.7
2017-Dec-10 10:29N 40°39' W 074°02'0 0.1
2017-Dec-10 09:59N 40°40' W 074°02'0 0.1
2017-Dec-10 09:29N 40°39' W 074°02'0 0.1
2017-Dec-10 08:59N 40°40' W 074°02'0 0.0
2017-Dec-10 08:29N 40°40' W 074°02'0 0.1
2017-Dec-10 07:59N 40°40' W 074°02'0 0.1
2017-Dec-10 07:29N 40°40' W 074°02'0 0.0
2017-Dec-10 06:59N 40°40' W 074°02'0 0.0
2017-Dec-10 06:29N 40°40' W 074°02'0 0.0
2017-Dec-10 05:59N 40°40' W 074°02'0 0.1
2017-Dec-10 05:29N 40°40' W 074°02'0 0.1
2017-Dec-10 04:59N 40°40' W 074°02'0 0.1
2017-Dec-10 04:29N 40°40' W 074°02'0 0.1
2017-Dec-10 03:59N 40°39' W 074°02'0 0.1
2017-Dec-10 03:29N 40°39' W 074°02'0 0.0
2017-Dec-10 02:59N 40°39' W 074°02'0 0.0
2017-Dec-10 02:29N 40°39' W 074°02'0 0.1
2017-Dec-10 01:59N 40°39' W 074°02'0 0.0
2017-Dec-10 01:29N 40°39' W 074°02'0 0.0
2017-Dec-10 00:59N 40°39' W 074°02'0 0.0
2017-Dec-10 00:29N 40°39' W 074°02'0 0.0
2017-Dec-09 23:59N 40°39' W 074°02'0 0.0
2017-Dec-09 23:29N 40°39' W 074°02'0 0.0
2017-Dec-09 22:59N 40°39' W 074°02'0 0.0
2017-Dec-09 22:29N 40°39' W 074°02'0 0.0
2017-Dec-09 21:59N 40°39' W 074°02'0 0.0
2017-Dec-09 21:29N 40°39' W 074°02'0 0.0
2017-Dec-09 20:59N 40°39' W 074°02'0 0.0
2017-Dec-09 20:29N 40°39' W 074°02'0 0.0
2017-Dec-09 19:59N 40°39' W 074°02'0 0.1
2017-Dec-09 19:29N 40°39' W 074°02'0 0.0
2017-Dec-09 18:59N 40°39' W 074°02'0 0.2
2017-Dec-09 18:29N 40°40' W 074°02'0 0.1
2017-Dec-09 17:59N 40°40' W 074°02'0 0.1
2017-Dec-09 17:29N 40°40' W 074°02'0 0.0
2017-Dec-09 16:59N 40°40' W 074°02'0 0.0
2017-Dec-09 16:29N 40°40' W 074°02'0 0.0
2017-Dec-09 15:59N 40°40' W 074°02'0 0.1
2017-Dec-09 15:29N 40°40' W 074°02'0 0.3
2017-Dec-09 14:59N 40°39' W 074°02'0 0.0
2017-Dec-09 14:29N 40°39' W 074°02'0 0.1
2017-Dec-09 13:59N 40°39' W 074°02'0 0.0
2017-Dec-09 13:29N 40°39' W 074°02'0 0.0
2017-Dec-09 12:59N 40°39' W 074°02'0 0.0
2017-Dec-09 12:29N 40°39' W 074°02'0 0.0
2017-Dec-09 11:59N 40°39' W 074°02'0 0.0
2017-Dec-09 11:29N 40°39' W 074°02'0 0.0
2017-Dec-09 10:59N 40°39' W 074°02'0 0.0
2017-Dec-09 10:29N 40°39' W 074°02'0 0.0
2017-Dec-09 09:59N 40°39' W 074°02'0 0.0
2017-Dec-09 09:29N 40°39' W 074°02'0 0.0
2017-Dec-09 08:59N 40°39' W 074°02'0 0.0
2017-Dec-09 08:29N 40°39' W 074°02'0 0.1
2017-Dec-09 07:59N 40°39' W 074°02'0 0.2
2017-Dec-09 07:29N 40°40' W 074°02'0 0.2
2017-Dec-09 06:59N 40°40' W 074°02'0 0.1
2017-Dec-09 06:29N 40°40' W 074°02'0 0.0
2017-Dec-09 05:59N 40°40' W 074°02'0 0.0
2017-Dec-09 05:29N 40°40' W 074°02'0 0.0
2017-Dec-09 04:59N 40°40' W 074°02'0 0.0
2017-Dec-09 04:29N 40°40' W 074°02'0 0.1
2017-Dec-09 03:59N 40°40' W 074°02'0 0.0
2017-Dec-09 03:29N 40°40' W 074°02'0 0.1
2017-Dec-09 02:59N 40°40' W 074°02'0 0.0
2017-Dec-09 02:29N 40°40' W 074°02'0 0.1
2017-Dec-09 01:59N 40°39' W 074°02'0 0.0
2017-Dec-09 01:29N 40°39' W 074°02'0 0.1
2017-Dec-09 00:59N 40°39' W 074°02'0 0.0
2017-Dec-09 00:29N 40°39' W 074°02'0 0.1
2017-Dec-08 23:58N 40°40' W 074°02'0 0.1
2017-Dec-08 23:29N 40°39' W 074°02'0 0.0
2017-Dec-08 23:00N 40°39' W 074°02'1 2.3
2017-Dec-08 22:29N 40°40' W 074°01'0 0.0
2017-Dec-08 21:59N 40°40' W 074°01'0 0.0
2017-Dec-08 21:29N 40°40' W 074°01'0 0.0
2017-Dec-08 20:59N 40°40' W 074°01'0 0.0
2017-Dec-08 20:29N 40°40' W 074°01'0 0.0
2017-Dec-08 19:59N 40°40' W 074°01'0 0.0
2017-Dec-08 19:29N 40°40' W 074°01'0 0.0
2017-Dec-08 18:59N 40°40' W 074°01'0 0.0
2017-Dec-08 18:29N 40°40' W 074°01'0 0.0
2017-Dec-08 17:59N 40°40' W 074°01'1 1.1
2017-Dec-08 17:30N 40°40' W 074°02'1 1.7
2017-Dec-08 16:58N 40°40' W 074°02'0 0.0
2017-Dec-08 16:28N 40°40' W 074°02'0 0.0
2017-Dec-08 15:58N 40°40' W 074°02'0 0.0
2017-Dec-08 15:28N 40°40' W 074°02'0 0.0
2017-Dec-08 14:58N 40°40' W 074°02'0 0.1
2017-Dec-08 14:28N 40°40' W 074°02'0 0.1
2017-Dec-08 13:58N 40°40' W 074°02'0 0.1
2017-Dec-08 13:28N 40°39' W 074°02'0 0.1
2017-Dec-08 12:58N 40°39' W 074°02'0 0.0
2017-Dec-08 12:28N 40°39' W 074°02'0 0.1
2017-Dec-08 11:58N 40°39' W 074°02'0 0.0
2017-Dec-08 11:28N 40°39' W 074°02'0 0.0
2017-Dec-08 10:58N 40°39' W 074°02'0 0.0
2017-Dec-08 10:28N 40°39' W 074°02'0 0.0
2017-Dec-08 09:58N 40°39' W 074°02'0 0.1
2017-Dec-08 09:28N 40°39' W 074°02'0 0.0
2017-Dec-08 08:58N 40°39' W 074°02'0 0.1
2017-Dec-08 08:28N 40°39' W 074°02'0 0.0
2017-Dec-08 07:58N 40°39' W 074°02'0 0.1
2017-Dec-08 07:28N 40°39' W 074°02'0 0.1
2017-Dec-08 06:58N 40°39' W 074°02'0 0.1
2017-Dec-08 06:28N 40°40' W 074°02'0 0.1
2017-Dec-08 05:58N 40°40' W 074°02'0 0.1
2017-Dec-08 05:28N 40°40' W 074°02'0 0.0
2017-Dec-08 04:58N 40°40' W 074°02'0 0.0
2017-Dec-08 04:28N 40°40' W 074°02'0 0.0
2017-Dec-08 03:58N 40°40' W 074°02'0 0.1
2017-Dec-08 03:28N 40°40' W 074°02'0 0.0
2017-Dec-08 02:58N 40°40' W 074°02'0 0.0
2017-Dec-08 02:28N 40°40' W 074°02'0 0.1
2017-Dec-08 01:58N 40°40' W 074°02'0 0.1
2017-Dec-08 01:28N 40°40' W 074°02'0 0.0
2017-Dec-08 00:58N 40°40' W 074°02'0 0.3
2017-Dec-08 00:28N 40°40' W 074°02'0 0.1
2017-Dec-07 23:58N 40°39' W 074°02'0 0.0
2017-Dec-07 23:28N 40°39' W 074°02'0 0.0
2017-Dec-07 22:58N 40°39' W 074°02'0 0.1
2017-Dec-07 22:28N 40°39' W 074°02'0 0.1
2017-Dec-07 21:58N 40°39' W 074°02'0 0.0
2017-Dec-07 21:28N 40°39' W 074°02'0 0.1
2017-Dec-07 20:58N 40°39' W 074°02'0 0.0
2017-Dec-07 20:28N 40°39' W 074°02'0 0.1
2017-Dec-07 19:58N 40°39' W 074°02'0 0.1
2017-Dec-07 19:28N 40°40' W 074°02'0 0.1
2017-Dec-07 18:58N 40°40' W 074°02'0 0.1
2017-Dec-07 18:28N 40°40' W 074°02'0 0.1
2017-Dec-07 17:58N 40°40' W 074°02'0 0.1
2017-Dec-07 17:28N 40°40' W 074°02'0 0.0
2017-Dec-07 16:58N 40°40' W 074°02'0 0.1
2017-Dec-07 16:28N 40°40' W 074°02'0 0.0
2017-Dec-07 15:58N 40°40' W 074°02'0 0.1
2017-Dec-07 15:28N 40°40' W 074°02'0 0.1
2017-Dec-07 14:58N 40°40' W 074°02'0 0.0
2017-Dec-07 14:28N 40°40' W 074°02'0 0.0
2017-Dec-07 13:58N 40°40' W 074°02'0 0.0
2017-Dec-07 13:28N 40°40' W 074°02'0 0.0
2017-Dec-07 12:58N 40°40' W 074°02'0 0.1
2017-Dec-07 12:28N 40°40' W 074°02'0 0.0
2017-Dec-07 11:58N 40°40' W 074°02'0 0.1
2017-Dec-07 11:28N 40°40' W 074°02'0 0.1
2017-Dec-07 10:58N 40°39' W 074°02'0 0.1
2017-Dec-07 10:28N 40°39' W 074°02'0 0.0
2017-Dec-07 09:58N 40°39' W 074°02'0 0.0
2017-Dec-07 09:28N 40°39' W 074°02'0 0.0
2017-Dec-07 08:58N 40°39' W 074°02'0 0.0
2017-Dec-07 08:28N 40°39' W 074°02'0 0.0
2017-Dec-07 07:58N 40°39' W 074°02'0 0.1
2017-Dec-07 07:28N 40°40' W 074°02'0 0.1
2017-Dec-07 06:58N 40°40' W 074°02'0 0.1
2017-Dec-07 06:28N 40°40' W 074°02'0 0.1
2017-Dec-07 05:58N 40°40' W 074°02'0 0.0
2017-Dec-07 05:28N 40°40' W 074°02'0 0.0
2017-Dec-07 04:58N 40°40' W 074°02'0 0.0
2017-Dec-07 04:28N 40°40' W 074°02'0 0.1
2017-Dec-07 04:00N 40°40' W 074°02'0 0.0
2017-Dec-07 03:30N 40°40' W 074°02'0 0.0
2017-Dec-07 03:00N 40°40' W 074°02'0 0.0
2017-Dec-07 02:30N 40°40' W 074°02'0 0.0
2017-Dec-07 02:00N 40°40' W 074°02'0 0.0
2017-Dec-07 01:30N 40°40' W 074°02'0 0.0
2017-Dec-07 01:00N 40°40' W 074°02'0 0.1
2017-Dec-07 00:30N 40°40' W 074°02'0 0.0
2017-Dec-07 00:00N 40°40' W 074°02'0 0.1
2017-Dec-06 23:30N 40°40' W 074°02'0 0.1
2017-Dec-06 23:00N 40°40' W 074°02'0 0.0
2017-Dec-06 22:30N 40°40' W 074°02'0 0.3
2017-Dec-06 22:00N 40°39' W 074°02'3 5.6
2017-Dec-06 21:30N 40°39' W 074°06'1 2.6
2017-Dec-06 21:00N 40°38' W 074°08'  
Track history (hours):
 
Tides and Currents Weather Stations Pressure Air Temp Water Temp Dewpoint Dewpoint Depression Visibility Wind Speed Wind Dir Waves Ship Positions

Gracie M. Reinauer

Owner: REINAUER TRANSPORTATION CO.,LLC., STATEN ISLAND,, NY. More information available from US FCC via Universal Licensing System and Coast Guard Vessel Documentation Center.

Last reported at 2017-Dec-15 05:31 UTC. Time now 2017-Dec-15 08:28 UTC.
Position N 40°30' W 074°10'.

Length 145 m; draft 4.9 m.

Type: . MMSI: 367728850.

Date/timePositionNaut miles runAvg speedWind from/ knotsBaromVisibWave heightAir tempDewpointWater temp
2017-Dec-15 05:31N 40°30' W 074°10'1 9.5
2017-Dec-15 05:26N 40°30' W 074°09'4 9.2
2017-Dec-15 04:57N 40°29' W 074°04'4 8.9
2017-Dec-15 04:30N 40°33' W 074°02'611.2
2017-Dec-15 04:01N 40°38' W 074°03'1610.7
2017-Dec-15 02:31N 40°53' W 073°56'6 0.1
2017-Dec-13 07:51N 40°59' W 073°54'3 8.9
2017-Dec-13 07:30N 40°56' W 073°55'4 8.4
2017-Dec-13 07:00N 40°52' W 073°57'4 8.0
2017-Dec-13 06:30N 40°48' W 073°59'4 7.5
2017-Dec-13 06:01N 40°45' W 074°01'4 7.2
2017-Dec-13 05:30N 40°41' W 074°02'3 6.2
2017-Dec-13 05:01N 40°39' W 074°05'4 7.1
2017-Dec-13 04:30N 40°39' W 074°10'3 5.7
2017-Dec-13 04:00N 40°37' W 074°12'2 2.8
2017-Dec-13 03:28N 40°35' W 074°13'0 0.0
2017-Dec-13 02:58N 40°35' W 074°13'0 0.0
2017-Dec-13 01:45N 40°35' W 074°13'0 0.0
2017-Dec-13 01:27N 40°35' W 074°13'0 0.0
2017-Dec-13 01:00N 40°35' W 074°13'0 0.0
2017-Dec-12 23:39N 40°35' W 074°13'0 0.0
2017-Dec-12 10:27N 40°35' W 074°13'0 0.0
2017-Dec-12 09:15N 40°35' W 074°13'0 0.0
2017-Dec-12 08:45N 40°35' W 074°13'0 0.0
2017-Dec-12 08:24N 40°35' W 074°13'0 0.0
2017-Dec-12 07:57N 40°35' W 074°13'0 0.0
2017-Dec-12 07:27N 40°35' W 074°13'0 0.0
2017-Dec-12 06:57N 40°35' W 074°13'0 0.0
2017-Dec-12 06:15N 40°35' W 074°13'0 0.0
2017-Dec-12 05:15N 40°35' W 074°13'0 0.0
2017-Dec-12 04:57N 40°35' W 074°13'0 0.0
2017-Dec-12 04:21N 40°35' W 074°13'0 0.0
2017-Dec-12 03:39N 40°35' W 074°13'0 0.0
2017-Dec-12 03:27N 40°35' W 074°13'0 0.0
2017-Dec-12 00:45N 40°35' W 074°13'0 0.0
2017-Dec-11 23:39N 40°35' W 074°13'0 0.0
2017-Dec-11 23:15N 40°35' W 074°13'0 0.2
2017-Dec-11 22:48N 40°35' W 074°13'1 4.4
2017-Dec-11 22:30N 40°36' W 074°12'3 6.3
2017-Dec-11 21:58N 40°39' W 074°09'4 7.9
2017-Dec-11 21:30N 40°39' W 074°04'1 2.5
2017-Dec-11 20:59N 40°39' W 074°03'0 0.0
2017-Dec-11 20:29N 40°40' W 074°03'0 0.0
2017-Dec-11 19:59N 40°40' W 074°03'0 0.0
2017-Dec-11 19:29N 40°40' W 074°03'0 0.0
2017-Dec-11 18:59N 40°40' W 074°03'0 0.0
2017-Dec-11 18:29N 40°40' W 074°03'0 0.2
2017-Dec-11 17:59N 40°39' W 074°03'0 0.2
2017-Dec-11 17:29N 40°39' W 074°03'0 0.0
2017-Dec-11 16:59N 40°39' W 074°03'0 0.0
2017-Dec-11 16:29N 40°39' W 074°03'0 0.0
2017-Dec-11 15:59N 40°39' W 074°03'0 0.0
2017-Dec-11 15:29N 40°39' W 074°03'0 0.0
2017-Dec-11 14:59N 40°39' W 074°03'0 0.0
2017-Dec-11 14:29N 40°39' W 074°03'0 0.0
2017-Dec-11 13:59N 40°39' W 074°03'0 0.0
2017-Dec-11 13:29N 40°39' W 074°03'0 0.0
2017-Dec-11 12:59N 40°39' W 074°03'0 0.0
2017-Dec-11 12:29N 40°39' W 074°03'0 0.0
2017-Dec-11 11:59N 40°39' W 074°03'0 0.0
2017-Dec-11 11:29N 40°39' W 074°03'0 0.1
2017-Dec-11 10:59N 40°39' W 074°03'0 0.1
2017-Dec-11 10:29N 40°39' W 074°03'0 0.0
2017-Dec-11 09:59N 40°39' W 074°03'0 0.0
2017-Dec-11 09:29N 40°40' W 074°03'0 0.0
2017-Dec-11 08:59N 40°40' W 074°03'0 0.0
2017-Dec-11 08:29N 40°40' W 074°03'0 0.0
2017-Dec-11 07:59N 40°40' W 074°03'0 0.0
2017-Dec-11 07:29N 40°40' W 074°03'0 0.0
2017-Dec-11 06:59N 40°40' W 074°03'0 0.0
2017-Dec-11 06:29N 40°40' W 074°03'0 0.0
2017-Dec-11 05:59N 40°40' W 074°03'0 0.1
2017-Dec-11 05:29N 40°40' W 074°03'0 0.3
2017-Dec-11 04:59N 40°39' W 074°03'0 0.0
2017-Dec-11 04:29N 40°39' W 074°03'0 0.0
2017-Dec-11 03:59N 40°39' W 074°03'0 0.0
2017-Dec-11 03:29N 40°39' W 074°03'0 0.0
2017-Dec-11 02:59N 40°39' W 074°03'0 0.0
2017-Dec-11 02:29N 40°39' W 074°03'0 0.0
2017-Dec-11 01:59N 40°39' W 074°03'0 0.0
2017-Dec-11 01:29N 40°39' W 074°03'0 0.0
2017-Dec-11 00:59N 40°39' W 074°03'0 0.0
2017-Dec-11 00:29N 40°39' W 074°03'0 0.0
2017-Dec-10 23:59N 40°39' W 074°03'0 0.1
2017-Dec-10 23:29N 40°39' W 074°03'0 0.2
2017-Dec-10 22:59N 40°39' W 074°03'0 0.0
2017-Dec-10 22:29N 40°39' W 074°03'0 0.1
2017-Dec-10 21:59N 40°39' W 074°03'0 0.0
2017-Dec-10 21:29N 40°39' W 074°03'0 0.0
2017-Dec-10 20:59N 40°39' W 074°03'0 0.0
2017-Dec-10 20:29N 40°39' W 074°03'0 0.1
2017-Dec-10 19:59N 40°40' W 074°03'0 0.0
2017-Dec-10 19:29N 40°39' W 074°03'0 0.0
2017-Dec-10 18:59N 40°40' W 074°03'0 0.0
2017-Dec-10 18:29N 40°40' W 074°03'0 0.1
2017-Dec-10 17:59N 40°39' W 074°03'0 0.0
2017-Dec-10 17:29N 40°39' W 074°03'0 0.0
2017-Dec-10 16:59N 40°39' W 074°03'0 0.1
2017-Dec-10 16:29N 40°39' W 074°03'0 0.0
2017-Dec-10 15:59N 40°39' W 074°03'0 0.1
2017-Dec-10 15:29N 40°39' W 074°03'0 0.1
2017-Dec-10 14:59N 40°39' W 074°03'0 0.0
2017-Dec-10 14:28N 40°39' W 074°03'0 0.1
2017-Dec-10 13:59N 40°39' W 074°03'0 0.0
2017-Dec-10 13:29N 40°39' W 074°03'0 0.0
2017-Dec-10 12:58N 40°39' W 074°03'0 0.0
2017-Dec-10 12:28N 40°39' W 074°03'0 0.0
2017-Dec-10 11:59N 40°39' W 074°03'0 0.0
2017-Dec-10 11:29N 40°39' W 074°03'0 0.1
2017-Dec-10 10:59N 40°39' W 074°03'0 0.7
2017-Dec-10 10:29N 40°39' W 074°02'0 0.1
2017-Dec-10 09:59N 40°40' W 074°02'0 0.1
2017-Dec-10 09:29N 40°39' W 074°02'0 0.1
2017-Dec-10 08:59N 40°40' W 074°02'0 0.0
2017-Dec-10 08:29N 40°40' W 074°02'0 0.1
2017-Dec-10 07:59N 40°40' W 074°02'0 0.1
2017-Dec-10 07:29N 40°40' W 074°02'0 0.0
2017-Dec-10 06:59N 40°40' W 074°02'0 0.0
2017-Dec-10 06:29N 40°40' W 074°02'0 0.0
2017-Dec-10 05:59N 40°40' W 074°02'0 0.1
2017-Dec-10 05:29N 40°40' W 074°02'0 0.1
2017-Dec-10 04:59N 40°40' W 074°02'0 0.1
2017-Dec-10 04:29N 40°40' W 074°02'0 0.1
2017-Dec-10 03:59N 40°39' W 074°02'0 0.1
2017-Dec-10 03:29N 40°39' W 074°02'0 0.0
2017-Dec-10 02:59N 40°39' W 074°02'0 0.0
2017-Dec-10 02:29N 40°39' W 074°02'0 0.1
2017-Dec-10 01:59N 40°39' W 074°02'0 0.0
2017-Dec-10 01:29N 40°39' W 074°02'0 0.0
2017-Dec-10 00:59N 40°39' W 074°02'0 0.0
2017-Dec-10 00:29N 40°39' W 074°02'0 0.0
2017-Dec-09 23:59N 40°39' W 074°02'0 0.0
2017-Dec-09 23:29N 40°39' W 074°02'0 0.0
2017-Dec-09 22:59N 40°39' W 074°02'0 0.0
2017-Dec-09 22:29N 40°39' W 074°02'0 0.0
2017-Dec-09 21:59N 40°39' W 074°02'0 0.0
2017-Dec-09 21:29N 40°39' W 074°02'0 0.0
2017-Dec-09 20:59N 40°39' W 074°02'0 0.0
2017-Dec-09 20:29N 40°39' W 074°02'0 0.0
2017-Dec-09 19:59N 40°39' W 074°02'0 0.1
2017-Dec-09 19:29N 40°39' W 074°02'0 0.0
2017-Dec-09 18:59N 40°39' W 074°02'0 0.2
2017-Dec-09 18:29N 40°40' W 074°02'0 0.1
2017-Dec-09 17:59N 40°40' W 074°02'0 0.1
2017-Dec-09 17:29N 40°40' W 074°02'0 0.0
2017-Dec-09 16:59N 40°40' W 074°02'0 0.0
2017-Dec-09 16:29N 40°40' W 074°02'0 0.0
2017-Dec-09 15:59N 40°40' W 074°02'0 0.1
2017-Dec-09 15:29N 40°40' W 074°02'0 0.3
2017-Dec-09 14:59N 40°39' W 074°02'0 0.0
2017-Dec-09 14:29N 40°39' W 074°02'0 0.1
2017-Dec-09 13:59N 40°39' W 074°02'0 0.0
2017-Dec-09 13:29N 40°39' W 074°02'0 0.0
2017-Dec-09 12:59N 40°39' W 074°02'0 0.0
2017-Dec-09 12:29N 40°39' W 074°02'0 0.0
2017-Dec-09 11:59N 40°39' W 074°02'0 0.0
2017-Dec-09 11:29N 40°39' W 074°02'0 0.0
2017-Dec-09 10:59N 40°39' W 074°02'0 0.0
2017-Dec-09 10:29N 40°39' W 074°02'0 0.0
2017-Dec-09 09:59N 40°39' W 074°02'0 0.0
2017-Dec-09 09:29N 40°39' W 074°02'0 0.0
2017-Dec-09 08:59N 40°39' W 074°02'0 0.0
2017-Dec-09 08:29N 40°39' W 074°02'0 0.1
2017-Dec-09 07:59N 40°39' W 074°02'0 0.2
2017-Dec-09 07:29N 40°40' W 074°02'0 0.2
2017-Dec-09 06:59N 40°40' W 074°02'0 0.1
2017-Dec-09 06:29N 40°40' W 074°02'0 0.0
2017-Dec-09 05:59N 40°40' W 074°02'0 0.0
2017-Dec-09 05:29N 40°40' W 074°02'0 0.0
2017-Dec-09 04:59N 40°40' W 074°02'0 0.0
2017-Dec-09 04:29N 40°40' W 074°02'0 0.1
2017-Dec-09 03:59N 40°40' W 074°02'0 0.0
2017-Dec-09 03:29N 40°40' W 074°02'0 0.1
2017-Dec-09 02:59N 40°40' W 074°02'0 0.0
2017-Dec-09 02:29N 40°40' W 074°02'0 0.1
2017-Dec-09 01:59N 40°39' W 074°02'0 0.0
2017-Dec-09 01:29N 40°39' W 074°02'0 0.1
2017-Dec-09 00:59N 40°39' W 074°02'0 0.0
2017-Dec-09 00:29N 40°39' W 074°02'0 0.1
2017-Dec-08 23:58N 40°40' W 074°02'0 0.1
2017-Dec-08 23:29N 40°39' W 074°02'0 0.0
2017-Dec-08 23:00N 40°39' W 074°02'1 2.3
2017-Dec-08 22:29N 40°40' W 074°01'0 0.0
2017-Dec-08 21:59N 40°40' W 074°01'0 0.0
2017-Dec-08 21:29N 40°40' W 074°01'0 0.0
2017-Dec-08 20:59N 40°40' W 074°01'0 0.0
2017-Dec-08 20:29N 40°40' W 074°01'0 0.0
2017-Dec-08 19:59N 40°40' W 074°01'0 0.0
2017-Dec-08 19:29N 40°40' W 074°01'0 0.0
2017-Dec-08 18:59N 40°40' W 074°01'0 0.0
2017-Dec-08 18:29N 40°40' W 074°01'0 0.0
2017-Dec-08 17:59N 40°40' W 074°01'1 1.1
2017-Dec-08 17:30N 40°40' W 074°02'1 1.7
2017-Dec-08 16:58N 40°40' W 074°02'0 0.0
2017-Dec-08 16:28N 40°40' W 074°02'0 0.0
2017-Dec-08 15:58N 40°40' W 074°02'0 0.0
2017-Dec-08 15:28N 40°40' W 074°02'0 0.0
2017-Dec-08 14:58N 40°40' W 074°02'0 0.1
2017-Dec-08 14:28N 40°40' W 074°02'0 0.1
2017-Dec-08 13:58N 40°40' W 074°02'0 0.1
2017-Dec-08 13:28N 40°39' W 074°02'0 0.1
2017-Dec-08 12:58N 40°39' W 074°02'0 0.0
2017-Dec-08 12:28N 40°39' W 074°02'0 0.1
2017-Dec-08 11:58N 40°39' W 074°02'0 0.0
2017-Dec-08 11:28N 40°39' W 074°02'0 0.0
2017-Dec-08 10:58N 40°39' W 074°02'0 0.0
2017-Dec-08 10:28N 40°39' W 074°02'0 0.0
2017-Dec-08 09:58N 40°39' W 074°02'0 0.1
2017-Dec-08 09:28N 40°39' W 074°02'0 0.0
2017-Dec-08 08:58N 40°39' W 074°02'0 0.1
2017-Dec-08 08:28N 40°39' W 074°02'0 0.0
2017-Dec-08 07:58N 40°39' W 074°02'0 0.1
2017-Dec-08 07:28N 40°39' W 074°02'0 0.1
2017-Dec-08 06:58N 40°39' W 074°02'0 0.1
2017-Dec-08 06:28N 40°40' W 074°02'0 0.1
2017-Dec-08 05:58N 40°40' W 074°02'0 0.1
2017-Dec-08 05:28N 40°40' W 074°02'0 0.0
2017-Dec-08 04:58N 40°40' W 074°02'0 0.0
2017-Dec-08 04:28N 40°40' W 074°02'0 0.0
2017-Dec-08 03:58N 40°40' W 074°02'0 0.1
2017-Dec-08 03:28N 40°40' W 074°02'0 0.0
2017-Dec-08 02:58N 40°40' W 074°02'0 0.0
2017-Dec-08 02:28N 40°40' W 074°02'0 0.1
2017-Dec-08 01:58N 40°40' W 074°02'0 0.1
2017-Dec-08 01:28N 40°40' W 074°02'0 0.0
2017-Dec-08 00:58N 40°40' W 074°02'0 0.3
2017-Dec-08 00:28N 40°40' W 074°02'0 0.1
2017-Dec-07 23:58N 40°39' W 074°02'0 0.0
2017-Dec-07 23:28N 40°39' W 074°02'0 0.0
2017-Dec-07 22:58N 40°39' W 074°02'0 0.1
2017-Dec-07 22:28N 40°39' W 074°02'0 0.1
2017-Dec-07 21:58N 40°39' W 074°02'0 0.0
2017-Dec-07 21:28N 40°39' W 074°02'0 0.1
2017-Dec-07 20:58N 40°39' W 074°02'0 0.0
2017-Dec-07 20:28N 40°39' W 074°02'0 0.1
2017-Dec-07 19:58N 40°39' W 074°02'0 0.1
2017-Dec-07 19:28N 40°40' W 074°02'0 0.1
2017-Dec-07 18:58N 40°40' W 074°02'0 0.1
2017-Dec-07 18:28N 40°40' W 074°02'0 0.1
2017-Dec-07 17:58N 40°40' W 074°02'0 0.1
2017-Dec-07 17:28N 40°40' W 074°02'0 0.0
2017-Dec-07 16:58N 40°40' W 074°02'0 0.1
2017-Dec-07 16:28N 40°40' W 074°02'0 0.0
2017-Dec-07 15:58N 40°40' W 074°02'0 0.1
2017-Dec-07 15:28N 40°40' W 074°02'0 0.1
2017-Dec-07 14:58N 40°40' W 074°02'0 0.0
2017-Dec-07 14:28N 40°40' W 074°02'0 0.0
2017-Dec-07 13:58N 40°40' W 074°02'0 0.0
2017-Dec-07 13:28N 40°40' W 074°02'0 0.0
2017-Dec-07 12:58N 40°40' W 074°02'0 0.1
2017-Dec-07 12:28N 40°40' W 074°02'0 0.0
2017-Dec-07 11:58N 40°40' W 074°02'0 0.1
2017-Dec-07 11:28N 40°40' W 074°02'0 0.1
2017-Dec-07 10:58N 40°39' W 074°02'0 0.1
2017-Dec-07 10:28N 40°39' W 074°02'0 0.0
2017-Dec-07 09:58N 40°39' W 074°02'0 0.0
2017-Dec-07 09:28N 40°39' W 074°02'0 0.0
2017-Dec-07 08:58N 40°39' W 074°02'0 0.0
2017-Dec-07 08:28N 40°39' W 074°02'0 0.0
2017-Dec-07 07:58N 40°39' W 074°02'0 0.1
2017-Dec-07 07:28N 40°40' W 074°02'0 0.1
2017-Dec-07 06:58N 40°40' W 074°02'0 0.1
2017-Dec-07 06:28N 40°40' W 074°02'0 0.1
2017-Dec-07 05:58N 40°40' W 074°02'0 0.0
2017-Dec-07 05:28N 40°40' W 074°02'0 0.0
2017-Dec-07 04:58N 40°40' W 074°02'0 0.0
2017-Dec-07 04:28N 40°40' W 074°02'0 0.1
2017-Dec-07 04:00N 40°40' W 074°02'0 0.0
2017-Dec-07 03:30N 40°40' W 074°02'0 0.0
2017-Dec-07 03:00N 40°40' W 074°02'0 0.0
2017-Dec-07 02:30N 40°40' W 074°02'0 0.0
2017-Dec-07 02:00N 40°40' W 074°02'0 0.0
2017-Dec-07 01:30N 40°40' W 074°02'0 0.0
2017-Dec-07 01:00N 40°40' W 074°02'0 0.1
2017-Dec-07 00:30N 40°40' W 074°02'0 0.0
2017-Dec-07 00:00N 40°40' W 074°02'0 0.1
2017-Dec-06 23:30N 40°40' W 074°02'0 0.1
2017-Dec-06 23:00N 40°40' W 074°02'0 0.0
2017-Dec-06 22:30N 40°40' W 074°02'0 0.3
2017-Dec-06 22:00N 40°39' W 074°02'3 5.6
2017-Dec-06 21:30N 40°39' W 074°06'1 2.6
2017-Dec-06 21:00N 40°38' W 074°08'  

Dump ship's entire track history